createdAt,value
2019-03-17T00:01:43.859Z,95.87
2019-03-17T00:04:16.180Z,95.77
2019-03-17T00:06:48.555Z,95.69
2019-03-17T00:09:21.131Z,95.56
2019-03-17T00:11:53.605Z,95.42
2019-03-17T00:14:25.975Z,95.24
2019-03-17T00:16:58.451Z,95.03
2019-03-17T00:19:30.823Z,94.82
2019-03-17T00:22:02.772Z,94.62
2019-03-17T00:24:35.113Z,94.54
2019-03-17T00:27:07.527Z,94.36
2019-03-17T00:29:40.003Z,94.24
2019-03-17T00:32:11.951Z,94.07
2019-03-17T00:34:44.645Z,94.10
2019-03-17T00:37:16.915Z,93.97
2019-03-17T00:39:49.299Z,93.87
2019-03-17T00:42:21.657Z,93.83
2019-03-17T00:44:53.925Z,93.63
2019-03-17T00:47:26.290Z,93.52
2019-03-17T00:49:58.568Z,93.55
2019-03-17T00:52:30.945Z,93.61
2019-03-17T00:55:03.205Z,93.53
2019-03-17T00:57:35.583Z,93.49
2019-03-17T01:00:15.059Z,93.48
2019-03-17T01:02:47.389Z,93.42
2019-03-17T01:05:19.303Z,93.22
2019-03-17T01:07:51.620Z,93.25
2019-03-17T01:10:25.027Z,93.20
2019-03-17T01:12:58.522Z,93.29
2019-03-17T01:15:30.788Z,93.31
2019-03-17T01:18:02.739Z,93.37
2019-03-17T01:20:35.118Z,93.38
2019-03-17T01:23:07.491Z,93.50
2019-03-17T01:25:39.773Z,93.61
2019-03-17T01:28:12.436Z,93.58
2019-03-17T01:30:44.708Z,93.53
2019-03-17T01:33:17.085Z,93.60
2019-03-17T01:35:49.772Z,93.53
2019-03-17T01:38:21.713Z,93.63
2019-03-17T01:40:54.099Z,93.60
2019-03-17T01:43:26.464Z,93.51
2019-03-17T01:45:58.735Z,93.48
2019-03-17T01:48:31.164Z,93.42
2019-03-17T01:51:03.484Z,93.36
2019-03-17T01:53:35.852Z,93.08
2019-03-17T01:56:07.771Z,92.86
2019-03-17T01:58:40.002Z,92.81
2019-03-17T02:01:12.355Z,92.61
2019-03-17T02:03:44.623Z,92.55
2019-03-17T02:06:18.218Z,92.00
2019-03-17T02:08:50.596Z,91.57
2019-03-17T02:11:22.970Z,91.51
2019-03-17T02:13:55.237Z,91.31
2019-03-17T02:16:27.612Z,90.69
2019-03-17T02:18:59.879Z,90.92
2019-03-17T02:21:32.250Z,90.94
2019-03-17T02:24:04.521Z,91.08
2019-03-17T02:26:36.893Z,91.06
2019-03-17T02:29:09.160Z,91.23
2019-03-17T02:31:41.541Z,91.24
2019-03-17T02:34:13.801Z,91.33
2019-03-17T02:36:46.171Z,91.18
2019-03-17T02:39:18.449Z,90.94
2019-03-17T02:41:50.818Z,90.58
2019-03-17T02:44:23.088Z,90.50
2019-03-17T02:46:55.458Z,90.13
2019-03-17T02:49:27.723Z,89.95
2019-03-17T02:52:00.098Z,89.46
2019-03-17T02:54:32.373Z,89.84
2019-03-17T02:57:04.742Z,89.70
2019-03-17T02:59:38.653Z,89.48
2019-03-17T03:02:11.022Z,89.46
2019-03-17T03:04:44.519Z,89.34
2019-03-17T03:07:16.887Z,89.13
2019-03-17T03:09:49.162Z,89.47
2019-03-17T03:12:21.531Z,89.08
2019-03-17T03:14:53.803Z,88.93
2019-03-17T03:17:26.177Z,88.58
2019-03-17T03:19:58.087Z,88.49
2019-03-17T03:22:30.414Z,88.39
2019-03-17T03:25:02.705Z,87.99
2019-03-17T03:27:35.049Z,88.11
2019-03-17T03:30:13.516Z,87.58
2019-03-17T03:32:45.938Z,87.43
2019-03-17T03:35:18.334Z,87.14
2019-03-17T03:37:50.256Z,87.12
2019-03-17T03:40:22.535Z,87.05
2019-03-17T03:42:54.484Z,86.57
2019-03-17T03:45:26.767Z,86.37
2019-03-17T03:47:59.140Z,85.64
2019-03-17T03:50:31.054Z,85.86
2019-03-17T03:53:03.428Z,85.29
2019-03-17T03:55:35.339Z,84.82
2019-03-17T03:58:07.288Z,84.94
2019-03-17T04:00:39.206Z,85.20
2019-03-17T04:03:11.534Z,84.59
2019-03-17T04:05:43.910Z,84.77
2019-03-17T04:08:16.279Z,84.33
2019-03-17T04:10:48.567Z,84.36
2019-03-17T04:13:20.495Z,84.55
2019-03-17T04:15:52.777Z,83.99
2019-03-17T04:18:25.743Z,84.02
2019-03-17T04:20:58.032Z,83.94
2019-03-17T04:23:30.404Z,84.13
2019-03-17T04:26:02.543Z,84.07
2019-03-17T04:28:34.944Z,84.14
2019-03-17T04:31:07.213Z,83.15
2019-03-17T04:33:39.590Z,83.15
2019-03-17T04:36:12.470Z,83.26
2019-03-17T04:38:44.892Z,83.10
2019-03-17T04:41:17.212Z,82.36
2019-03-17T04:43:49.153Z,82.88
2019-03-17T04:46:21.444Z,82.99
2019-03-17T04:48:55.081Z,82.46
2019-03-17T04:51:27.470Z,82.51
2019-03-17T04:53:59.785Z,82.48
2019-03-17T04:56:32.367Z,83.07
2019-03-17T04:59:05.149Z,82.85
2019-03-17T05:01:37.416Z,82.22
2019-03-17T05:04:09.790Z,82.13
2019-03-17T05:06:52.135Z,82.38
2019-03-17T05:09:16.069Z,82.15
2019-03-17T05:11:48.339Z,81.63
2019-03-17T05:14:20.705Z,81.37
2019-03-17T05:16:52.981Z,81.77
2019-03-17T05:19:25.354Z,82.06
2019-03-17T05:21:57.724Z,82.11
2019-03-17T05:24:30.101Z,82.01
2019-03-17T05:27:03.146Z,82.47
2019-03-17T05:29:35.452Z,82.23
2019-03-17T05:32:07.398Z,82.44
2019-03-17T05:34:39.685Z,82.68
2019-03-17T05:37:12.053Z,82.43
2019-03-17T05:39:44.379Z,82.24
2019-03-17T05:42:16.802Z,82.53
2019-03-17T05:44:48.717Z,82.39
2019-03-17T05:47:21.037Z,82.77
2019-03-17T05:49:53.717Z,83.02
2019-03-17T05:52:26.494Z,83.40
2019-03-17T05:54:59.173Z,82.49
2019-03-17T05:57:31.352Z,82.88
2019-03-17T06:00:03.279Z,83.00
2019-03-17T06:02:35.671Z,82.59
2019-03-17T06:05:09.481Z,82.67
2019-03-17T06:07:41.908Z,82.78
2019-03-17T06:10:14.228Z,82.71
2019-03-17T06:12:46.599Z,82.13
2019-03-17T06:15:19.070Z,81.86
2019-03-17T06:17:51.442Z,81.07
2019-03-17T06:20:23.819Z,81.32
2019-03-17T06:22:56.189Z,80.26
2019-03-17T06:25:28.457Z,79.73
2019-03-17T06:28:00.832Z,79.67
2019-03-17T06:30:33.156Z,79.08
2019-03-17T06:33:05.105Z,78.77
2019-03-17T06:35:37.236Z,79.20
2019-03-17T06:38:09.598Z,78.29
2019-03-17T06:40:41.864Z,78.55
2019-03-17T06:43:14.295Z,77.52
2019-03-17T06:45:46.618Z,77.69
2019-03-17T06:48:18.985Z,78.15
2019-03-17T06:50:51.350Z,76.69
2019-03-17T06:53:23.728Z,76.38
2019-03-17T06:55:56.105Z,77.02
2019-03-17T06:58:28.474Z,76.28
2019-03-17T07:01:00.736Z,75.78
2019-03-17T07:03:33.115Z,75.93
2019-03-17T07:06:05.131Z,75.28
2019-03-17T07:08:38.780Z,75.06
2019-03-17T07:11:11.292Z,75.18
2019-03-17T07:13:43.932Z,74.92
2019-03-17T07:16:16.304Z,75.37
2019-03-17T07:18:48.247Z,74.82
2019-03-17T07:21:20.538Z,74.05
2019-03-17T07:23:52.910Z,73.33
2019-03-17T07:26:25.282Z,73.74
2019-03-17T07:28:57.646Z,73.17
2019-03-17T07:31:29.922Z,72.55
2019-03-17T07:34:01.870Z,71.66
2019-03-17T07:36:33.796Z,70.55
2019-03-17T07:39:12.017Z,70.25
2019-03-17T07:41:42.382Z,69.11
2019-03-17T07:44:14.755Z,69.34
2019-03-17T07:46:47.022Z,69.37
2019-03-17T07:49:19.597Z,67.63
2019-03-17T07:51:51.977Z,68.28
2019-03-17T07:54:24.648Z,68.18
2019-03-17T07:56:57.023Z,68.42
2019-03-17T07:59:29.388Z,68.22
2019-03-17T08:02:01.794Z,67.93
2019-03-17T08:04:42.535Z,67.85
2019-03-17T08:07:08.044Z,66.95
2019-03-17T08:09:40.412Z,66.66
2019-03-17T08:12:12.688Z,65.49
2019-03-17T08:14:45.058Z,65.42
2019-03-17T08:17:17.321Z,64.08
2019-03-17T08:19:49.280Z,64.02
2019-03-17T08:22:21.556Z,63.67
2019-03-17T08:24:53.506Z,62.40
2019-03-17T08:27:25.795Z,62.81
2019-03-17T08:29:58.164Z,61.67
2019-03-17T08:32:30.433Z,63.09
2019-03-17T08:35:02.804Z,62.27
2019-03-17T08:37:35.070Z,61.03
2019-03-17T08:40:16.113Z,60.46
2019-03-17T08:42:48.426Z,60.19
2019-03-17T08:45:20.794Z,60.86
2019-03-17T08:47:58.282Z,59.67
2019-03-17T08:50:27.067Z,59.52
2019-03-17T08:52:59.346Z,59.84
2019-03-17T08:55:31.717Z,58.65
2019-03-17T08:58:03.984Z,60.19
2019-03-17T09:00:36.353Z,58.63
2019-03-17T09:03:08.625Z,58.40
2019-03-17T09:05:41.025Z,57.97
2019-03-17T09:08:13.266Z,56.85
2019-03-17T09:10:45.639Z,56.62
2019-03-17T09:13:18.015Z,56.84
2019-03-17T09:15:50.381Z,56.91
2019-03-17T09:18:22.292Z,55.01
2019-03-17T09:20:54.712Z,55.44
2019-03-17T09:23:26.690Z,53.98
2019-03-17T09:25:59.051Z,55.17
2019-03-17T09:28:31.422Z,55.56
2019-03-17T09:31:07.159Z,55.34
2019-03-17T09:33:37.600Z,55.18
2019-03-17T09:36:09.871Z,55.08
2019-03-17T09:38:47.317Z,54.75
2019-03-17T09:41:15.780Z,54.87
2019-03-17T09:43:48.123Z,52.10
2019-03-17T09:46:20.485Z,51.16
2019-03-17T09:48:52.859Z,51.43
2019-03-17T09:51:24.771Z,51.18
2019-03-17T09:53:57.089Z,50.40
2019-03-17T09:56:29.462Z,50.49
2019-03-17T09:59:01.916Z,50.67
2019-03-17T10:01:34.307Z,50.70
2019-03-17T10:04:06.885Z,50.91
2019-03-17T10:06:38.812Z,50.17
2019-03-17T10:09:11.119Z,50.21
2019-03-17T10:11:43.038Z,50.98
2019-03-17T10:14:15.403Z,51.58
2019-03-17T10:16:49.054Z,51.63
2019-03-17T10:19:21.423Z,50.79
2019-03-17T10:21:53.801Z,50.34
2019-03-17T10:24:26.167Z,50.03
2019-03-17T10:26:58.443Z,49.13
2019-03-17T10:29:30.808Z,47.60
2019-03-17T10:32:03.077Z,49.71
2019-03-17T10:34:35.453Z,48.28
2019-03-17T10:37:07.726Z,48.14
2019-03-17T10:39:40.160Z,48.18
2019-03-17T10:42:12.064Z,48.37
2019-03-17T10:44:44.447Z,47.07
2019-03-17T10:47:16.791Z,47.39
2019-03-17T10:49:49.680Z,44.55
2019-03-17T10:52:22.123Z,45.85
2019-03-17T10:54:54.732Z,44.08
2019-03-17T10:57:27.103Z,44.15
2019-03-17T10:59:59.470Z,44.26
2019-03-17T11:02:32.057Z,44.60
2019-03-17T11:05:05.147Z,42.74
2019-03-17T11:07:37.414Z,42.93
2019-03-17T11:10:12.854Z,43.82
2019-03-17T11:12:45.190Z,41.89
2019-03-17T11:15:19.342Z,41.94
2019-03-17T11:17:51.262Z,42.74
2019-03-17T11:20:24.596Z,42.26
2019-03-17T11:22:56.866Z,41.34
2019-03-17T11:25:30.159Z,41.96
2019-03-17T11:28:04.169Z,42.26
2019-03-17T11:30:36.541Z,41.36
2019-03-17T11:33:09.222Z,41.90
2019-03-17T11:35:41.597Z,41.81
2019-03-17T11:38:13.862Z,41.30
2019-03-17T11:40:46.279Z,41.08
2019-03-17T11:43:18.506Z,41.19
2019-03-17T11:45:51.136Z,39.37
2019-03-17T11:48:24.068Z,39.02
2019-03-17T11:50:56.440Z,38.46
2019-03-17T11:53:28.711Z,38.14
2019-03-17T11:56:01.086Z,37.74
2019-03-17T11:58:33.353Z,37.87
2019-03-17T12:01:05.722Z,38.32
2019-03-17T12:03:37.993Z,37.89
2019-03-17T12:06:10.369Z,38.60
2019-03-17T12:08:42.285Z,36.46
2019-03-17T12:11:14.595Z,36.87
2019-03-17T12:13:46.967Z,37.18
2019-03-17T12:16:19.350Z,37.44
2019-03-17T12:18:51.711Z,37.54
2019-03-17T12:21:24.090Z,38.27
2019-03-17T12:23:56.361Z,37.17
2019-03-17T12:26:28.726Z,37.48
2019-03-17T12:29:00.875Z,35.79
2019-03-17T12:31:33.268Z,35.16
2019-03-17T12:34:05.636Z,35.83
2019-03-17T12:36:38.061Z,34.95
2019-03-17T12:39:10.382Z,35.05
2019-03-17T12:41:42.753Z,33.93
2019-03-17T12:44:15.125Z,35.23
2019-03-17T12:46:47.495Z,34.38
2019-03-17T12:49:19.874Z,33.21
2019-03-17T12:51:52.240Z,33.32
2019-03-17T12:54:24.622Z,32.96
2019-03-17T12:56:56.913Z,33.22
2019-03-17T12:59:29.209Z,33.02
2019-03-17T13:02:01.580Z,32.93
2019-03-17T13:04:33.757Z,32.57
2019-03-17T13:07:06.119Z,32.26
2019-03-17T13:09:38.492Z,31.49
2019-03-17T13:12:10.467Z,31.70
2019-03-17T13:14:42.829Z,31.63
2019-03-17T13:17:14.797Z,32.45
2019-03-17T13:19:47.153Z,31.91
2019-03-17T13:22:19.527Z,30.85
2019-03-17T13:24:53.034Z,30.76
2019-03-17T13:27:25.475Z,31.13
2019-03-17T13:29:57.769Z,30.71
2019-03-17T13:32:30.149Z,30.54
2019-03-17T13:35:02.514Z,31.32
2019-03-17T13:37:34.887Z,31.20
2019-03-17T13:40:28.090Z,31.28
2019-03-17T13:42:50.492Z,30.07
2019-03-17T13:45:22.754Z,29.51
2019-03-17T13:47:55.227Z,29.94
2019-03-17T13:50:27.505Z,30.07
2019-03-17T13:53:00.694Z,29.48
2019-03-17T13:55:32.959Z,29.42
2019-03-17T13:58:11.784Z,30.41
2019-03-17T14:00:44.153Z,29.58
2019-03-17T14:03:16.532Z,29.87
2019-03-17T14:05:49.312Z,29.69
2019-03-17T14:08:21.790Z,29.44
2019-03-17T14:10:53.701Z,29.30
2019-03-17T14:13:26.117Z,28.58
2019-03-17T14:15:58.495Z,30.03
2019-03-17T14:18:30.872Z,29.99
2019-03-17T14:21:03.241Z,30.74
2019-03-17T14:23:35.817Z,30.89
2019-03-17T14:26:08.183Z,33.67
2019-03-17T14:28:40.564Z,35.37
2019-03-17T14:31:12.828Z,35.38
2019-03-17T14:33:45.196Z,32.26
2019-03-17T14:36:17.565Z,32.37
2019-03-17T14:38:49.946Z,31.86
2019-03-17T14:41:22.210Z,33.18
2019-03-17T14:43:54.406Z,31.61
2019-03-17T14:46:26.755Z,31.95
2019-03-17T14:48:58.739Z,35.59
2019-03-17T14:51:30.666Z,39.03
2019-03-17T14:54:03.053Z,40.04
2019-03-17T14:56:35.425Z,41.11
2019-03-17T14:59:07.899Z,42.09
2019-03-17T15:01:40.273Z,36.95
2019-03-17T15:04:12.747Z,33.69
2019-03-17T15:06:45.219Z,32.63
2019-03-17T15:09:17.589Z,31.98
2019-03-17T15:11:49.509Z,33.01
2019-03-17T15:14:21.919Z,33.09
2019-03-17T15:16:53.834Z,32.52
2019-03-17T15:19:26.266Z,33.07
2019-03-17T15:21:58.532Z,34.26
2019-03-17T15:24:30.901Z,33.93
2019-03-17T15:27:03.170Z,34.92
2019-03-17T15:29:35.368Z,35.05
2019-03-17T15:32:07.293Z,35.10
2019-03-17T15:34:39.672Z,38.39
2019-03-17T15:37:11.944Z,40.19
2019-03-17T15:39:44.042Z,41.81
2019-03-17T15:42:19.189Z,42.37
2019-03-17T15:44:50.391Z,42.65
2019-03-17T15:47:22.653Z,43.57
2019-03-17T15:49:55.030Z,43.85
2019-03-17T15:52:27.303Z,44.09
2019-03-17T15:54:59.664Z,44.88
2019-03-17T15:57:32.047Z,44.81
2019-03-17T16:00:06.254Z,44.64
2019-03-17T16:02:38.529Z,45.45
2019-03-17T16:05:11.003Z,45.54
2019-03-17T16:07:43.582Z,45.75
2019-03-17T16:10:25.231Z,46.62
2019-03-17T16:12:57.542Z,47.48
2019-03-17T16:15:29.915Z,47.50
2019-03-17T16:18:03.209Z,48.45
2019-03-17T16:20:35.579Z,48.73
2019-03-17T16:23:07.854Z,48.57
2019-03-17T16:25:40.683Z,49.68
2019-03-17T16:28:13.003Z,49.44
2019-03-17T16:30:45.373Z,50.04
2019-03-17T16:33:17.647Z,50.16
2019-03-17T16:35:50.011Z,50.76
2019-03-17T16:38:22.387Z,51.25
2019-03-17T16:40:54.763Z,51.48
2019-03-17T16:43:27.130Z,52.00
2019-03-17T16:45:59.504Z,52.13
2019-03-17T16:48:31.871Z,52.30
2019-03-17T16:51:04.251Z,53.00
2019-03-17T16:53:36.529Z,53.48
2019-03-17T16:56:08.914Z,52.93
2019-03-17T16:58:41.267Z,53.25
2019-03-17T17:01:13.259Z,52.70
2019-03-17T17:03:45.595Z,53.33
2019-03-17T17:06:17.963Z,54.38
2019-03-17T17:08:50.335Z,55.68
2019-03-17T17:11:22.816Z,57.06
2019-03-17T17:13:55.076Z,57.62
2019-03-17T17:16:29.590Z,58.39
2019-03-17T17:19:01.362Z,58.93
2019-03-17T17:21:33.738Z,61.19
2019-03-17T17:24:06.102Z,65.17
2019-03-17T17:26:38.081Z,67.24
2019-03-17T17:29:10.339Z,68.73
2019-03-17T17:31:42.707Z,69.63
2019-03-17T17:34:14.980Z,70.17
2019-03-17T17:36:47.456Z,70.35
2019-03-17T17:39:19.724Z,70.53
2019-03-17T17:41:52.194Z,71.03
2019-03-17T17:44:24.469Z,70.41
2019-03-17T17:46:58.255Z,69.56
2019-03-17T17:49:30.845Z,69.93
2019-03-17T17:52:04.454Z,70.29
2019-03-17T17:54:36.725Z,71.14
2019-03-17T17:57:10.133Z,72.26
2019-03-17T17:59:43.405Z,73.20
2019-03-17T18:02:15.783Z,73.34
2019-03-17T18:04:48.054Z,73.64
2019-03-17T18:07:20.419Z,73.46
2019-03-17T18:09:52.798Z,73.67
2019-03-17T18:12:25.170Z,73.78
2019-03-17T18:14:57.540Z,73.99
2019-03-17T18:17:29.913Z,73.97
2019-03-17T18:20:02.716Z,74.02
2019-03-17T18:22:35.154Z,73.95
2019-03-17T18:25:14.498Z,73.46
2019-03-17T18:27:46.973Z,73.45
2019-03-17T18:30:26.620Z,72.97
2019-03-17T18:32:58.992Z,73.50
2019-03-17T18:35:31.424Z,73.67
2019-03-17T18:38:03.974Z,72.78
2019-03-17T18:40:37.297Z,74.26
2019-03-17T18:43:09.713Z,76.16
2019-03-17T18:45:42.777Z,78.07
2019-03-17T18:48:15.471Z,79.59
2019-03-17T18:50:47.742Z,80.75
2019-03-17T18:53:20.120Z,81.21
2019-03-17T18:55:52.919Z,81.58
2019-03-17T18:58:25.378Z,82.71
2019-03-17T19:00:57.750Z,83.72
2019-03-17T19:03:30.131Z,83.03
2019-03-17T19:06:02.487Z,83.88
2019-03-17T19:08:34.760Z,84.29
2019-03-17T19:11:07.775Z,84.84
2019-03-17T19:13:40.018Z,85.12
2019-03-17T19:16:13.817Z,85.59
2019-03-17T19:18:45.728Z,85.69
2019-03-17T19:21:18.152Z,85.97
2019-03-17T19:23:50.934Z,85.26
2019-03-17T19:26:23.308Z,85.83
2019-03-17T19:28:55.678Z,85.83
2019-03-17T19:31:28.155Z,86.31
2019-03-17T19:34:00.426Z,85.94
2019-03-17T19:36:33.924Z,86.40
2019-03-17T19:39:08.338Z,86.34
2019-03-17T19:41:40.715Z,86.81
2019-03-17T19:44:12.846Z,87.06
2019-03-17T19:46:45.253Z,87.47
2019-03-17T19:49:17.865Z,87.44
2019-03-17T19:51:50.547Z,87.43
2019-03-17T19:54:22.876Z,87.49
2019-03-17T19:56:55.557Z,87.69
2019-03-17T19:59:27.941Z,87.98
2019-03-17T20:02:00.306Z,88.24
2019-03-17T20:04:35.545Z,88.50
2019-03-17T20:07:06.688Z,88.54
2019-03-17T20:09:38.957Z,88.58
2019-03-17T20:12:11.740Z,88.47
2019-03-17T20:14:44.011Z,87.94
2019-03-17T20:17:16.479Z,88.00
2019-03-17T20:19:48.749Z,88.15
2019-03-17T20:22:21.227Z,87.96
2019-03-17T20:24:53.497Z,88.09
2019-03-17T20:27:25.867Z,87.95
2019-03-17T20:29:58.242Z,87.95
2019-03-17T20:32:30.614Z,87.76
2019-03-17T20:35:02.880Z,87.93
2019-03-17T20:37:36.273Z,87.58
2019-03-17T20:40:17.771Z,88.02
2019-03-17T20:42:50.129Z,87.95
2019-03-17T20:45:22.405Z,87.86
2019-03-17T20:47:54.913Z,87.94
2019-03-17T20:50:29.317Z,87.85
2019-03-17T20:53:05.916Z,88.16
2019-03-17T20:55:39.265Z,87.81
2019-03-17T20:58:11.632Z,87.92
2019-03-17T21:00:43.903Z,87.53
2019-03-17T21:03:17.512Z,87.79
2019-03-17T21:05:49.419Z,88.20
2019-03-17T21:08:24.048Z,88.13
2019-03-17T21:10:56.364Z,87.94
2019-03-17T21:13:31.136Z,88.37
2019-03-17T21:16:03.465Z,88.67
2019-03-17T21:18:35.945Z,88.87
2019-03-17T21:21:08.622Z,88.56
2019-03-17T21:23:42.015Z,88.42
2019-03-17T21:26:14.276Z,88.14
2019-03-17T21:28:50.339Z,88.17
2019-03-17T21:31:25.235Z,87.86
2019-03-17T21:33:57.897Z,87.84
2019-03-17T21:36:33.125Z,88.14
2019-03-17T21:39:11.293Z,87.92
2019-03-17T21:41:43.395Z,87.53
2019-03-17T21:44:15.733Z,87.45
2019-03-17T21:46:48.101Z,87.54
2019-03-17T21:49:25.531Z,87.51
2019-03-17T21:52:01.163Z,87.34
2019-03-17T21:54:37.715Z,87.19
2019-03-17T21:57:10.101Z,86.54
2019-03-17T21:59:42.059Z,86.44
2019-03-17T22:02:15.155Z,86.48
2019-03-17T22:04:48.196Z,86.65
2019-03-17T22:07:22.433Z,86.54
2019-03-17T22:09:54.837Z,86.19
2019-03-17T22:12:27.288Z,86.26
2019-03-17T22:15:00.418Z,86.32
2019-03-17T22:17:32.845Z,85.88
2019-03-17T22:20:07.791Z,85.92
2019-03-17T22:22:40.360Z,86.20
2019-03-17T22:25:17.784Z,85.95
2019-03-17T22:27:50.731Z,86.02
2019-03-17T22:30:24.337Z,86.13
2019-03-17T22:32:56.758Z,86.16
2019-03-17T22:35:28.738Z,85.96
2019-03-17T22:38:01.044Z,86.10
2019-03-17T22:40:33.518Z,86.09
2019-03-17T22:43:05.890Z,86.42
2019-03-17T22:45:38.260Z,86.49
2019-03-17T22:48:10.527Z,86.30
2019-03-17T22:50:42.952Z,86.44
2019-03-17T22:53:15.268Z,86.22
2019-03-17T22:55:47.640Z,86.52
2019-03-17T22:58:19.915Z,86.56
2019-03-17T23:00:52.692Z,86.41
2019-03-17T23:03:26.197Z,86.37
2019-03-17T23:05:58.569Z,86.38
2019-03-17T23:08:30.833Z,86.57
2019-03-17T23:11:03.517Z,86.71
2019-03-17T23:13:35.781Z,86.57
2019-03-17T23:16:08.480Z,86.55
2019-03-17T23:18:40.735Z,86.49
2019-03-17T23:21:12.703Z,86.11
2019-03-17T23:23:44.962Z,86.14
2019-03-17T23:26:17.332Z,86.11
2019-03-17T23:28:49.610Z,86.28
2019-03-17T23:31:22.082Z,86.35
2019-03-17T23:33:54.354Z,86.21
2019-03-17T23:36:26.724Z,86.20
2019-03-17T23:38:58.989Z,86.10
2019-03-17T23:41:31.667Z,86.10
2019-03-17T23:44:03.810Z,85.93
2019-03-17T23:46:36.419Z,86.16
2019-03-17T23:49:08.683Z,86.17
2019-03-17T23:51:41.051Z,86.24
2019-03-17T23:54:13.324Z,86.21
2019-03-17T23:56:50.165Z,86.14
2019-03-17T23:59:21.144Z,86.04
